Time;durP1;ratioP1;P1;durP2;ratioP2;P2;SDS_P1;SDS_P2;PMS_P1;PMS_P2;Temp;Humidity;BMP_temperature;BMP_pressure;BME280_temperature;BME280_humidity;BME280_pressure;Samples;Min_cycle;Max_cycle;Signal;HPM_P1;HPM_P2
2022/04/12 00:01:31;;;;;;;2.40;2.20;;;8.40;99.90;;;;;;493470;240;27980;-72
2022/04/12 00:03:35;;;;;;;2.00;1.90;;;8.30;99.90;;;;;;493472;240;27984;-73
2022/04/12 00:05:36;;;;;;;1.93;1.83;;;8.30;99.90;;;;;;493483;241;27960;-72
2022/04/12 00:07:38;;;;;;;2.23;2.10;;;8.20;99.90;;;;;;493472;240;27971;-72
2022/04/12 00:09:40;;;;;;;2.00;1.90;;;8.20;99.90;;;;;;493491;240;27398;-72
2022/04/12 00:11:47;;;;;;;2.00;1.90;;;8.10;99.90;;;;;;493478;240;27934;-72
2022/04/12 00:13:48;;;;;;;2.10;1.90;;;8.20;99.90;;;;;;493507;241;27863;-72
2022/04/12 00:15:59;;;;;;;1.97;1.87;;;8.10;99.90;;;;;;493456;240;28088;-74
2022/04/12 00:20:28;;;;;;;1.77;1.67;;;8.10;99.90;;;;;;493496;241;28520;-72
2022/04/12 00:22:30;;;;;;;2.27;2.10;;;8.00;99.90;;;;;;493522;240;28099;-72
2022/04/12 00:24:43;;;;;;;2.10;2.00;;;8.00;99.90;;;;;;493483;240;27857;-73
2022/04/12 00:26:44;;;;;;;2.03;1.93;;;8.00;99.90;;;;;;493492;240;28220;-72
2022/04/12 00:28:48;;;;;;;1.67;1.57;;;8.00;99.90;;;;;;493470;240;29068;-72
2022/04/12 00:30:49;;;;;;;1.93;1.83;;;7.90;99.90;;;;;;493500;240;27649;-72
2022/04/12 00:33:08;;;;;;;1.60;1.50;;;7.90;99.90;;;;;;493496;241;28230;-72
2022/04/12 00:35:09;;;;;;;1.73;1.63;;;7.90;99.90;;;;;;493512;236;27880;-72
2022/04/12 00:37:17;;;;;;;1.70;1.60;;;7.80;99.90;;;;;;493509;241;27855;-72
2022/04/12 00:39:18;;;;;;;1.73;1.63;;;7.80;99.90;;;;;;493520;241;27717;-72
2022/04/12 00:41:22;;;;;;;1.80;1.70;;;7.70;99.90;;;;;;493494;236;27512;-72
2022/04/12 00:43:23;;;;;;;2.00;1.90;;;7.70;99.90;;;;;;493521;241;27878;-72
2022/04/12 00:47:32;;;;;;;1.83;1.73;;;7.50;99.90;;;;;;493529;240;27471;-72
2022/04/12 00:51:37;;;;;;;1.70;1.60;;;7.40;99.90;;;;;;493514;240;27797;-72
2022/04/12 00:53:45;;;;;;;2.00;1.90;;;7.40;99.90;;;;;;493507;240;27497;-73
2022/04/12 00:55:46;;;;;;;1.53;1.43;;;7.30;99.90;;;;;;493509;241;27938;-72
2022/04/12 00:57:49;;;;;;;1.70;1.60;;;7.30;99.90;;;;;;493496;240;28632;-72
2022/04/12 00:59:51;;;;;;;1.50;1.43;;;7.30;99.90;;;;;;493540;240;28708;-72
2022/04/12 01:01:51;;;;;;;1.60;1.58;;;7.30;99.90;;;;;;493431;240;28743;-72
2022/04/12 01:04:01;;;;;;;1.80;1.70;;;7.30;99.90;;;;;;493505;240;28270;-72
2022/04/12 01:06:02;;;;;;;1.70;1.60;;;7.30;99.90;;;;;;493474;240;27433;-72
2022/04/12 01:10:20;;;;;;;1.50;1.50;;;7.30;99.90;;;;;;502222;237;27864;-72
2022/04/12 01:12:21;;;;;;;1.58;1.48;;;7.30;99.90;;;;;;502577;237;27555;-72
2022/04/12 01:14:29;;;;;;;1.60;1.50;;;7.30;99.90;;;;;;502527;237;27963;-72
2022/04/12 01:16:30;;;;;;;1.70;1.60;;;7.30;99.90;;;;;;502553;237;27554;-73
2022/04/12 01:18:38;;;;;;;1.75;1.65;;;7.30;99.90;;;;;;502554;237;27948;-74
2022/04/12 01:20:39;;;;;;;1.27;1.27;;;7.30;99.90;;;;;;502535;237;27442;-71
2022/04/12 01:22:41;;;;;;;1.80;1.70;;;7.30;99.90;;;;;;502496;237;27908;-72
2022/04/12 01:24:43;;;;;;;1.58;1.48;;;7.20;99.90;;;;;;502520;237;28884;-72
2022/04/12 01:26:45;;;;;;;1.50;1.40;;;7.10;99.90;;;;;;502542;237;27446;-71
2022/04/12 01:28:46;;;;;;;1.48;1.40;;;7.10;99.90;;;;;;502509;237;28023;-72
2022/04/12 01:30:47;;;;;;;1.40;1.40;;;7.10;99.90;;;;;;502545;237;27948;-72
2022/04/12 01:32:48;;;;;;;1.40;1.30;;;7.10;99.90;;;;;;502547;237;27542;-72
2022/04/12 01:35:02;;;;;;;1.60;1.50;;;7.10;99.90;;;;;;502541;237;27456;-71
2022/04/12 01:37:03;;;;;;;1.50;1.50;;;7.00;99.90;;;;;;502539;237;27587;-72
2022/04/12 01:39:07;;;;;;;1.70;1.60;;;7.10;99.90;;;;;;502512;237;27944;-72
2022/04/12 01:41:09;;;;;;;1.50;1.40;;;7.10;99.90;;;;;;502548;237;28799;-72
2022/04/12 01:43:16;;;;;;;1.45;1.35;;;7.10;99.90;;;;;;502527;237;27945;-72
2022/04/12 01:45:17;;;;;;;1.70;1.60;;;7.10;99.90;;;;;;502545;237;27525;-73
2022/04/12 01:47:24;;;;;;;1.20;1.20;;;7.10;99.90;;;;;;502522;237;27953;-72
2022/04/12 01:49:25;;;;;;;1.60;1.50;;;7.20;99.90;;;;;;502522;237;27507;-72
2022/04/12 01:51:28;;;;;;;1.57;1.47;;;7.20;99.90;;;;;;502513;237;28601;-72
2022/04/12 01:53:29;;;;;;;1.40;1.40;;;7.20;99.90;;;;;;502536;237;28748;-72
2022/04/12 01:55:36;;;;;;;1.80;1.70;;;7.20;99.90;;;;;;502548;237;28343;-72
2022/04/12 01:57:37;;;;;;;1.60;1.60;;;7.20;99.90;;;;;;502525;237;28762;-72
2022/04/12 01:59:45;;;;;;;1.50;1.40;;;7.20;99.90;;;;;;502500;237;28785;-72
2022/04/12 02:01:46;;;;;;;1.48;1.37;;;7.20;99.90;;;;;;502509;237;27457;-72
2022/04/12 02:03:53;;;;;;;1.55;1.50;;;7.20;99.90;;;;;;502543;237;27929;-72
2022/04/12 02:05:54;;;;;;;1.70;1.60;;;7.20;99.90;;;;;;502534;237;27495;-72
2022/04/12 02:08:01;;;;;;;1.60;1.52;;;7.20;99.90;;;;;;502542;237;27993;-72
2022/04/12 02:10:02;;;;;;;1.40;1.40;;;7.20;99.90;;;;;;502557;237;27486;-72
2022/04/12 02:12:04;;;;;;;1.48;1.40;;;7.30;99.90;;;;;;502537;237;28036;-72
2022/04/12 02:14:08;;;;;;;1.47;1.37;;;7.40;99.90;;;;;;502517;237;27961;-72
2022/04/12 02:16:09;;;;;;;1.87;1.77;;;7.40;99.90;;;;;;502511;237;28794;-72
2022/04/12 02:18:11;;;;;;;1.80;1.70;;;7.40;99.90;;;;;;502532;237;28793;-72
2022/04/12 02:20:12;;;;;;;1.80;1.70;;;7.40;99.90;;;;;;502547;237;27955;-72
2022/04/12 02:22:19;;;;;;;1.90;1.80;;;7.60;99.90;;;;;;502523;237;27608;-71
2022/04/12 02:24:20;;;;;;;1.50;1.50;;;7.60;99.90;;;;;;502523;237;28836;-73
2022/04/12 02:26:27;;;;;;;1.62;1.60;;;7.60;99.90;;;;;;502510;237;27899;-73
2022/04/12 02:28:29;;;;;;;1.87;1.77;;;7.70;99.90;;;;;;502533;237;27446;-73
2022/04/12 02:30:33;;;;;;;1.57;1.57;;;7.80;99.90;;;;;;502540;237;27978;-73
2022/04/12 02:32:34;;;;;;;1.70;1.60;;;7.80;99.90;;;;;;502563;237;28438;-74
2022/04/12 02:34:35;;;;;;;2.10;2.00;;;7.70;99.90;;;;;;502621;237;27824;-73
2022/04/12 02:36:37;;;;;;;1.40;1.40;;;7.70;99.90;;;;;;502566;237;28134;-73
2022/04/12 02:38:39;;;;;;;1.70;1.60;;;7.60;99.90;;;;;;502546;237;28815;-73
2022/04/12 02:40:40;;;;;;;1.70;1.60;;;7.60;99.90;;;;;;502554;237;28789;-74
2022/04/12 02:42:41;;;;;;;1.60;1.50;;;7.60;99.90;;;;;;502523;237;28813;-73
2022/04/12 02:44:43;;;;;;;2.00;1.90;;;7.60;99.90;;;;;;502525;237;28985;-74
2022/04/12 02:46:50;;;;;;;2.40;1.60;;;7.70;99.90;;;;;;502528;237;28480;-74
2022/04/12 02:48:51;;;;;;;1.50;1.50;;;7.70;99.90;;;;;;502518;237;27922;-74
2022/04/12 02:50:58;;;;;;;1.33;1.30;;;7.60;99.90;;;;;;502513;237;28782;-74
2022/04/12 02:52:59;;;;;;;1.52;1.42;;;7.60;99.90;;;;;;502538;237;28885;-74
2022/04/12 02:55:09;;;;;;;1.40;1.40;;;7.60;99.90;;;;;;502551;237;27871;-71
2022/04/12 02:57:11;;;;;;;1.77;1.67;;;7.70;99.90;;;;;;502556;237;28862;-73
2022/04/12 02:59:12;;;;;;;1.60;1.50;;;7.40;99.90;;;;;;502494;237;28806;-73
2022/04/12 03:01:13;;;;;;;1.50;1.50;;;7.20;99.90;;;;;;502500;237;27595;-73
2022/04/12 03:03:14;;;;;;;1.93;1.80;;;7.20;99.90;;;;;;502477;237;28597;-73
2022/04/12 03:05:16;;;;;;;1.60;1.50;;;7.10;99.90;;;;;;502539;237;28804;-74
2022/04/12 03:09:22;;;;;;;1.60;1.50;;;7.00;99.90;;;;;;502497;237;27446;-73
2022/04/12 03:11:26;;;;;;;1.77;1.70;;;7.00;99.90;;;;;;502381;233;28898;-73
2022/04/12 03:13:27;;;;;;;1.53;1.43;;;7.00;99.90;;;;;;502509;237;27473;-74
2022/04/12 03:15:28;;;;;;;2.00;1.90;;;6.90;99.90;;;;;;502528;237;27736;-74
2022/04/12 03:17:29;;;;;;;1.77;1.67;;;6.90;99.90;;;;;;502535;237;28781;-74
2022/04/12 03:19:37;;;;;;;1.77;1.67;;;6.90;99.90;;;;;;502501;237;28663;-73
2022/04/12 03:21:38;;;;;;;1.70;1.60;;;7.00;99.90;;;;;;502547;237;27447;-74
2022/04/12 03:23:40;;;;;;;1.60;1.50;;;7.10;99.90;;;;;;502531;237;27899;-73
2022/04/12 03:25:41;;;;;;;2.12;1.90;;;7.00;99.90;;;;;;502435;237;27438;-73
2022/04/12 03:27:49;;;;;;;1.50;1.40;;;6.90;99.90;;;;;;502534;237;27948;-73
2022/04/12 03:29:50;;;;;;;1.58;1.48;;;6.90;99.90;;;;;;502532;237;27445;-74
2022/04/12 03:31:51;;;;;;;1.65;1.55;;;7.00;99.90;;;;;;502512;237;27527;-73
2022/04/12 03:33:53;;;;;;;1.30;1.30;;;7.00;99.90;;;;;;502554;237;27525;-74
2022/04/12 03:40:09;;;;;;;1.65;1.55;;;6.90;99.90;;;;;;502038;237;27591;-71
2022/04/12 03:42:11;;;;;;;1.67;1.58;;;6.80;99.90;;;;;;502509;237;27491;-71
2022/04/12 03:44:12;;;;;;;1.60;1.50;;;6.80;99.90;;;;;;502458;236;27525;-71
2022/04/12 03:46:13;;;;;;;2.30;1.80;;;6.70;99.90;;;;;;502541;237;27486;-72
2022/04/12 03:48:20;;;;;;;1.60;1.50;;;6.60;99.90;;;;;;502514;237;27875;-72
2022/04/12 03:50:22;;;;;;;1.70;1.60;;;6.60;99.90;;;;;;502526;237;27499;-72
2022/04/12 03:52:25;;;;;;;1.53;1.43;;;6.70;99.90;;;;;;502487;237;28245;-72
2022/04/12 03:54:26;;;;;;;1.83;1.73;;;6.70;99.90;;;;;;502531;237;28869;-72
2022/04/12 03:56:34;;;;;;;2.15;1.85;;;6.70;99.90;;;;;;502528;237;28813;-71
2022/04/12 03:58:35;;;;;;;1.65;1.55;;;6.70;99.90;;;;;;502535;237;27459;-71
2022/04/12 04:00:40;;;;;;;1.70;1.60;;;6.80;99.90;;;;;;502527;237;27939;-72
2022/04/12 04:02:40;;;;;;;1.95;1.85;;;6.80;99.90;;;;;;502513;237;27490;-72
2022/04/12 04:04:41;;;;;;;2.58;1.83;;;6.80;99.90;;;;;;502537;237;27902;-72
2022/04/12 04:06:43;;;;;;;2.03;1.92;;;6.80;99.90;;;;;;502567;237;28029;-72
2022/04/12 04:08:44;;;;;;;2.08;1.95;;;6.80;99.90;;;;;;502520;237;27569;-72
2022/04/12 04:10:45;;;;;;;2.00;1.90;;;6.80;99.90;;;;;;502517;237;27577;-72
2022/04/12 04:12:47;;;;;;;1.90;1.80;;;6.90;99.90;;;;;;502519;237;28004;-73
2022/04/12 04:14:49;;;;;;;2.20;2.10;;;6.90;99.90;;;;;;502545;237;27935;-71
2022/04/12 04:16:51;;;;;;;1.95;1.85;;;6.90;99.90;;;;;;502510;237;28474;-74
2022/04/12 04:18:52;;;;;;;1.87;1.77;;;7.00;99.90;;;;;;502523;237;27485;-72
2022/04/12 04:20:53;;;;;;;1.83;1.75;;;7.00;99.90;;;;;;502508;237;27901;-71
2022/04/12 04:22:55;;;;;;;1.80;1.70;;;6.90;99.90;;;;;;502494;237;27948;-71
2022/04/12 04:25:05;;;;;;;2.03;1.92;;;6.90;99.90;;;;;;502515;237;27476;-73
2022/04/12 04:27:08;;;;;;;1.70;1.60;;;6.90;99.90;;;;;;502522;237;27935;-71
2022/04/12 04:29:10;;;;;;;1.70;1.60;;;6.90;99.90;;;;;;502479;237;29674;-72
2022/04/12 04:31:11;;;;;;;1.87;1.77;;;7.00;99.90;;;;;;502508;237;27451;-71
2022/04/12 04:33:14;;;;;;;1.70;1.60;;;7.20;99.90;;;;;;502506;237;27906;-71
2022/04/12 04:35:14;;;;;;;1.75;1.65;;;7.20;99.90;;;;;;502363;237;29221;-71
2022/04/12 04:37:15;;;;;;;3.00;1.80;;;6.90;99.90;;;;;;502502;237;28070;-72
2022/04/12 04:39:18;;;;;;;2.67;1.90;;;6.80;99.90;;;;;;502516;237;28387;-72
2022/04/12 04:41:19;;;;;;;2.00;1.90;;;6.90;99.90;;;;;;502526;237;27530;-72
2022/04/12 04:43:27;;;;;;;2.33;1.60;;;6.90;99.90;;;;;;502488;237;28816;-71
2022/04/12 04:45:28;;;;;;;1.70;1.60;;;7.10;99.90;;;;;;502527;237;27501;-72
2022/04/12 04:47:32;;;;;;;3.83;2.10;;;7.20;99.90;;;;;;502485;237;27929;-74
2022/04/12 04:49:33;;;;;;;2.03;1.92;;;7.30;99.90;;;;;;502492;237;27486;-72
2022/04/12 04:51:43;;;;;;;1.90;1.80;;;7.30;99.90;;;;;;502531;237;28025;-72
2022/04/12 04:53:49;;;;;;;2.05;1.95;;;7.40;99.90;;;;;;502507;237;28754;-72
2022/04/12 04:55:47;;;;;;;2.25;2.10;;;6.80;99.90;;;;;;502413;236;27554;-72
2022/04/12 04:57:46;;;;;;;1.98;1.87;;;6.50;99.90;;;;;;502487;236;27457;-72
2022/04/12 04:59:49;;;;;;;1.90;1.80;;;6.50;99.90;;;;;;502513;237;28319;-74
2022/04/12 05:01:50;;;;;;;2.20;2.10;;;6.50;99.90;;;;;;502494;237;27491;-74
2022/04/12 05:03:54;;;;;;;2.15;1.95;;;6.70;99.90;;;;;;502575;237;27965;-73
2022/04/12 05:05:56;;;;;;;2.10;2.00;;;6.70;99.90;;;;;;502494;237;27564;-74
2022/04/12 05:07:59;;;;;;;2.33;2.10;;;6.70;99.90;;;;;;502464;237;28453;-73
2022/04/12 05:10:00;;;;;;;2.17;1.98;;;6.70;99.90;;;;;;502505;237;27453;-72
2022/04/12 05:12:03;;;;;;;2.40;2.20;;;6.70;99.90;;;;;;502495;237;28005;-73
2022/04/12 05:14:05;;;;;;;2.00;1.90;;;6.70;99.90;;;;;;502504;237;27439;-73
2022/04/12 05:16:06;;;;;;;2.20;2.00;;;6.60;99.90;;;;;;502504;237;28918;-74
2022/04/12 05:18:07;;;;;;;2.42;2.22;;;6.70;99.90;;;;;;502526;237;28159;-71
2022/04/12 05:20:10;;;;;;;1.95;1.85;;;7.00;99.90;;;;;;502546;237;28038;-71
2022/04/12 05:22:11;;;;;;;2.22;2.05;;;7.20;99.90;;;;;;502513;237;27470;-72
2022/04/12 05:24:12;;;;;;;2.30;2.20;;;7.00;99.90;;;;;;502516;237;28012;-72
2022/04/12 05:26:13;;;;;;;2.30;2.10;;;6.90;99.90;;;;;;502530;237;27466;-73
2022/04/12 05:28:15;;;;;;;2.70;2.50;;;6.90;99.90;;;;;;502533;237;27878;-72
2022/04/12 05:30:16;;;;;;;3.10;2.60;;;6.90;99.90;;;;;;502521;237;27466;-72
2022/04/12 05:32:19;;;;;;;2.67;2.47;;;6.90;99.90;;;;;;502537;237;28208;-71
2022/04/12 05:34:21;;;;;;;2.40;2.20;;;7.00;99.90;;;;;;502540;237;27896;-72
2022/04/12 05:36:31;;;;;;;3.42;2.50;;;7.00;99.90;;;;;;502548;237;27941;-71
2022/04/12 05:38:32;;;;;;;2.42;2.08;;;6.90;99.90;;;;;;502531;237;27506;-72
2022/04/12 05:40:34;;;;;;;2.50;2.30;;;7.00;99.90;;;;;;502520;237;27944;-72
2022/04/12 05:42:36;;;;;;;2.67;2.20;;;7.00;99.90;;;;;;502611;237;29016;-73
2022/04/12 05:44:37;;;;;;;2.50;2.17;;;7.10;99.90;;;;;;502515;237;27456;-72
2022/04/12 05:46:38;;;;;;;2.70;2.20;;;7.00;99.90;;;;;;502579;237;28052;-74
2022/04/12 05:48:40;;;;;;;2.50;2.30;;;6.90;99.90;;;;;;502527;237;28584;-72
2022/04/12 05:50:47;;;;;;;2.57;2.27;;;6.90;99.90;;;;;;502543;237;27570;-72
2022/04/12 05:52:48;;;;;;;2.57;2.37;;;7.00;99.90;;;;;;502479;237;28802;-72
2022/04/12 05:54:50;;;;;;;2.42;2.22;;;7.10;99.90;;;;;;502532;237;28766;-72
2022/04/12 05:56:51;;;;;;;2.13;2.03;;;7.10;99.90;;;;;;502549;237;27944;-72
2022/04/12 05:58:55;;;;;;;2.30;2.10;;;7.20;99.90;;;;;;502562;237;30053;-73
2022/04/12 06:00:57;;;;;;;2.20;2.10;;;7.40;99.90;;;;;;502568;237;28793;-72
2022/04/12 06:03:04;;;;;;;2.20;2.10;;;7.40;99.90;;;;;;502532;237;29352;-74
2022/04/12 06:05:05;;;;;;;2.60;2.10;;;7.40;99.90;;;;;;502553;237;27786;-72
2022/04/12 06:07:08;;;;;;;2.20;2.10;;;7.60;99.90;;;;;;502543;237;27961;-73
2022/04/12 06:09:09;;;;;;;2.40;2.00;;;7.70;99.90;;;;;;502539;237;28072;-72
2022/04/12 06:11:14;;;;;;;2.70;2.50;;;7.80;99.90;;;;;;502562;237;28090;-74
2022/04/12 06:13:15;;;;;;;2.23;2.03;;;7.80;99.90;;;;;;502542;237;28019;-72
2022/04/12 06:15:18;;;;;;;2.43;2.23;;;7.80;99.90;;;;;;502554;237;27912;-72
2022/04/12 06:17:19;;;;;;;2.10;1.90;;;7.80;99.90;;;;;;502509;236;28023;-72
2022/04/12 06:19:23;;;;;;;2.10;1.90;;;7.80;99.90;;;;;;502538;237;28418;-74
2022/04/12 06:21:24;;;;;;;1.90;1.80;;;8.00;99.90;;;;;;502527;237;28498;-72
2022/04/12 06:23:31;;;;;;;2.47;2.30;;;8.10;99.90;;;;;;502539;237;28298;-74
2022/04/12 06:25:32;;;;;;;2.17;2.07;;;8.10;99.90;;;;;;502540;237;27995;-72
2022/04/12 06:27:39;;;;;;;2.97;1.90;;;8.20;99.90;;;;;;502532;237;27834;-74
2022/04/12 06:29:40;;;;;;;2.47;2.10;;;8.20;99.90;;;;;;502530;237;27957;-70
2022/04/12 06:31:47;;;;;;;2.27;2.17;;;8.20;99.90;;;;;;502519;237;27915;-73
2022/04/12 06:33:48;;;;;;;2.13;1.63;;;8.30;99.90;;;;;;502567;237;27809;-73
2022/04/12 06:35:53;;;;;;;2.47;1.70;;;8.30;99.90;;;;;;502570;237;27948;-73
2022/04/12 06:37:56;;;;;;;1.87;1.77;;;8.40;99.90;;;;;;502538;237;27607;-72
2022/04/12 06:39:57;;;;;;;2.40;1.63;;;8.50;99.90;;;;;;502524;236;27637;-73
2022/04/12 06:42:02;;;;;;;1.60;1.50;;;8.50;99.90;;;;;;502547;237;27841;-73
2022/04/12 06:44:03;;;;;;;1.80;1.70;;;8.50;99.90;;;;;;502552;237;28078;-73
2022/04/12 06:48:12;;;;;;;1.80;1.70;;;8.70;99.90;;;;;;502531;237;27738;-75
2022/04/12 06:50:14;;;;;;;2.00;1.90;;;8.70;99.90;;;;;;502550;237;28011;-74
2022/04/12 06:52:15;;;;;;;2.00;1.90;;;8.90;99.90;;;;;;502564;237;28002;-72
2022/04/12 06:54:20;;;;;;;1.90;1.80;;;9.10;99.90;;;;;;502554;237;27702;-74
2022/04/12 06:56:21;;;;;;;2.37;2.17;;;9.40;99.90;;;;;;502545;237;27958;-74
2022/04/12 07:00:32;;;;;;;2.27;2.07;;;9.60;99.90;;;;;;502553;237;28303;-74
2022/04/12 07:02:34;;;;;;;2.27;2.10;;;9.80;99.90;;;;;;502571;237;28081;-72
2022/04/12 07:04:35;;;;;;;1.80;1.70;;;9.80;99.90;;;;;;502549;237;27829;-75
2022/04/12 07:08:57;;;;;;;2.50;2.30;;;9.90;99.90;;;;;;490192;240;28545;-72
2022/04/12 07:11:07;;;;;;;2.50;2.20;;;10.10;99.90;;;;;;490171;243;27967;-72
2022/04/12 07:13:09;;;;;;;2.23;2.13;;;10.20;99.90;;;;;;490205;243;28472;-73
2022/04/12 07:15:13;;;;;;;2.17;1.97;;;10.30;99.90;;;;;;490184;243;28359;-73
2022/04/12 07:17:14;;;;;;;1.90;1.80;;;10.30;99.90;;;;;;490216;240;28113;-72
2022/04/12 07:19:27;;;;;;;2.30;2.10;;;10.40;99.90;;;;;;490198;240;28606;-73
2022/04/12 07:21:30;;;;;;;1.90;1.80;;;10.40;99.90;;;;;;490214;240;27614;-72
2022/04/12 07:23:45;;;;;;;2.00;1.80;;;10.50;99.90;;;;;;490035;243;27962;-75
2022/04/12 07:25:46;;;;;;;1.60;1.50;;;10.70;99.90;;;;;;490185;243;27923;-72
2022/04/12 07:29:57;;;;;;;2.30;2.17;;;11.30;99.90;;;;;;490157;243;28315;-72
2022/04/12 07:32:17;;;;;;;2.03;1.80;;;11.70;99.90;;;;;;490185;241;28344;-74
2022/04/12 07:34:19;;;;;;;1.67;1.57;;;11.90;99.90;;;;;;490157;243;28091;-73
2022/04/12 07:36:32;;;;;;;1.90;1.80;;;12.30;99.90;;;;;;490191;240;28199;-74
2022/04/12 07:38:33;;;;;;;1.77;1.67;;;12.40;99.90;;;;;;490209;240;28298;-74
2022/04/12 07:43:01;;;;;;;1.47;1.40;;;12.60;99.90;;;;;;490184;241;28717;-74
2022/04/12 07:47:25;;;;;;;1.67;1.57;;;12.70;99.90;;;;;;490211;241;28288;-74
2022/04/12 07:51:53;;;;;;;1.97;1.87;;;13.00;99.90;;;;;;490195;241;28146;-74
2022/04/12 07:54:12;;;;;;;2.03;1.70;;;13.40;99.90;;;;;;490166;240;28169;-74
2022/04/12 07:56:14;;;;;;;2.10;1.70;;;13.50;99.90;;;;;;490184;243;28225;-73
2022/04/12 08:03:25;;;;;;;1.63;1.57;;;13.70;99.90;;;;;;490142;241;29565;-74
2022/04/12 08:05:35;;;;;;;1.50;1.40;;;13.70;99.90;;;;;;490179;241;28649;-74
2022/04/12 08:07:36;;;;;;;1.83;1.47;;;13.80;99.90;;;;;;490114;243;28420;-73
2022/04/12 08:12:25;;;;;;;1.87;1.60;;;13.90;99.90;;;;;;490140;242;28545;-74
2022/04/12 08:17:05;;;;;;;1.97;1.87;;;14.20;99.90;;;;;;490187;242;28571;-74
2022/04/12 08:19:06;;;;;;;2.00;1.90;;;14.30;99.90;;;;;;490146;240;28635;-74
2022/04/12 08:23:45;;;;;;;2.00;1.90;;;14.40;99.90;;;;;;490102;243;28064;-75
2022/04/12 08:25:48;;;;;;;1.90;1.80;;;14.40;99.90;;;;;;490166;237;28264;-74
2022/04/12 08:30:27;;;;;;;2.50;2.30;;;14.70;99.90;;;;;;490143;243;28463;-74
2022/04/12 08:32:34;;;;;;;2.40;2.20;;;14.80;99.90;;;;;;490178;241;28301;-75
2022/04/12 08:37:10;;;;;;;2.23;2.03;;;14.80;99.90;;;;;;490202;241;28276;-74
2022/04/12 08:39:15;;;;;;;2.07;1.97;;;14.70;99.90;;;;;;490125;241;28528;-74
2022/04/12 08:43:52;;;;;;;1.90;1.70;;;14.80;99.90;;;;;;490245;241;28906;-74
2022/04/12 08:45:53;;;;;;;1.60;1.50;;;14.80;99.90;;;;;;489986;242;28285;-74
2022/04/12 08:50:32;;;;;;;1.70;1.60;;;14.80;99.90;;;;;;490111;243;28825;-75
2022/04/12 08:52:35;;;;;;;1.60;1.50;;;15.00;99.90;;;;;;490120;241;29290;-74
2022/04/12 08:54:36;;;;;;;1.80;1.70;;;15.00;99.50;;;;;;490135;241;28946;-74
2022/04/12 08:56:37;;;;;;;1.30;1.30;;;15.20;99.20;;;;;;489950;243;28927;-74
2022/04/12 09:00:59;;;;;;;1.83;1.67;;;15.20;99.90;;;;;;490064;241;28862;-75
2022/04/12 09:03:04;;;;;;;1.97;1.50;;;15.30;99.90;;;;;;490118;241;28429;-74
2022/04/12 09:05:06;;;;;;;1.90;1.80;;;15.30;99.90;;;;;;490187;241;28511;-75
2022/04/12 09:12:19;;;;;;;2.10;2.00;;;15.60;99.90;;;;;;490178;241;28728;-75
2022/04/12 09:19:19;;;;;;;1.70;1.60;;;15.70;99.90;;;;;;490156;243;28410;-75
2022/04/12 09:26:20;;;;;;;1.63;1.53;;;16.00;99.90;;;;;;490163;243;28983;-75
2022/04/12 09:28:21;;;;;;;1.70;1.50;;;16.20;99.70;;;;;;487871;241;36206;-74
2022/04/12 09:32:58;;;;;;;2.50;1.90;;;16.40;99.90;;;;;;490255;241;28763;-74
2022/04/12 09:34:59;;;;;;;1.67;1.57;;;16.40;99.90;;;;;;490170;241;29386;-74
2022/04/12 09:39:36;;;;;;;2.00;1.80;;;16.60;99.90;;;;;;490473;241;28679;-74
2022/04/12 09:46:36;;;;;;;2.80;1.70;;;16.40;99.90;;;;;;490204;243;28667;-74
2022/04/12 09:48:37;;;;;;;2.00;1.90;;;16.40;99.90;;;;;;490167;241;29396;-75
2022/04/12 09:53:16;;;;;;;2.20;2.00;;;16.60;99.70;;;;;;490188;243;28656;-74
2022/04/12 09:55:18;;;;;;;1.40;1.30;;;16.60;99.90;;;;;;490167;241;29428;-75
2022/04/12 10:01:59;;;;;;;1.53;1.43;;;16.70;99.90;;;;;;490151;242;28921;-74
2022/04/12 10:06:35;;;;;;;1.63;1.53;;;16.90;99.90;;;;;;490313;241;28723;-74
2022/04/12 10:08:44;;;;;;;3.83;1.97;;;16.90;99.70;;;;;;490178;241;28884;-75
2022/04/12 10:13:23;;;;;;;1.60;1.50;;;17.50;98.90;;;;;;490145;240;29270;-74
2022/04/12 10:15:34;;;;;;;1.70;1.60;;;17.60;99.90;;;;;;490164;241;29309;-74
2022/04/12 10:20:10;;;;;;;1.70;1.60;;;17.40;99.00;;;;;;490161;241;28640;-74
2022/04/12 10:22:26;;;;;;;1.57;1.47;;;17.20;99.90;;;;;;490165;241;29406;-75
2022/04/12 10:26:57;;;;;;;1.60;1.50;;;17.50;99.00;;;;;;490194;241;29173;-74
2022/04/12 10:29:04;;;;;;;1.60;1.50;;;17.50;99.60;;;;;;490130;241;28849;-75
2022/04/12 10:33:33;;;;;;;1.50;1.40;;;17.60;99.90;;;;;;490194;242;29234;-75
2022/04/12 10:38:02;;;;;;;1.37;1.27;;;17.60;99.90;;;;;;490377;241;29232;-75
2022/04/12 10:40:12;;;;;;;1.37;1.30;;;17.90;99.90;;;;;;490215;242;28816;-75
2022/04/12 10:42:14;;;;;;;1.53;1.37;;;17.90;99.80;;;;;;490555;241;28808;-75
2022/04/12 10:44:14;;;;;;;2.67;1.57;;;18.00;99.20;;;;;;490145;242;28839;-75
2022/04/12 10:46:16;;;;;;;2.20;1.50;;;17.90;99.70;;;;;;490246;241;29226;-75
2022/04/12 10:48:20;;;;;;;2.20;1.50;;;17.90;99.80;;;;;;490168;241;29271;-75
2022/04/12 10:50:21;;;;;;;1.40;1.30;;;18.00;99.20;;;;;;490200;241;28817;-75
2022/04/12 10:52:22;;;;;;;1.30;1.30;;;18.10;98.40;;;;;;490200;241;28873;-75
2022/04/12 10:54:24;;;;;;;2.40;1.50;;;18.20;98.90;;;;;;490217;241;29333;-76
2022/04/12 10:58:51;;;;;;;2.17;1.70;;;18.60;98.10;;;;;;490180;241;28872;-74
2022/04/12 11:00:52;;;;;;;3.40;1.50;;;18.60;98.80;;;;;;490164;241;29688;-75
2022/04/12 11:02:53;;;;;;;1.67;1.57;;;18.60;98.50;;;;;;490196;241;29243;-75
2022/04/12 11:07:17;;;;;;;1.90;1.70;;;18.70;97.70;;;;;;490112;242;28840;-74
2022/04/12 11:11:58;;;;;;;1.70;1.60;;;18.70;98.90;;;;;;490152;242;28851;-75
2022/04/12 11:16:17;;;;;;;1.67;1.57;;;18.90;98.20;;;;;;490195;240;29414;-75
2022/04/12 11:20:46;;;;;;;1.77;1.67;;;19.00;98.20;;;;;;490494;241;29361;-75
2022/04/12 11:22:59;;;;;;;1.63;1.53;;;19.00;97.90;;;;;;490211;241;29329;-75
2022/04/12 11:24:59;;;;;;;1.40;1.30;;;18.90;97.30;;;;;;490166;241;28870;-80
2022/04/12 11:27:00;;;;;;;4.53;1.53;;;19.10;97.30;;;;;;489933;243;28958;-75
2022/04/12 11:29:02;;;;;;;1.60;1.50;;;19.10;96.40;;;;;;490242;240;29283;-75
2022/04/12 11:33:38;;;;;;;1.60;1.50;;;19.30;96.50;;;;;;490129;242;28848;-75
2022/04/12 11:35:39;;;;;;;2.03;1.60;;;19.50;94.60;;;;;;490261;241;29975;-75
2022/04/12 11:37:41;;;;;;;1.70;1.60;;;19.30;95.90;;;;;;490205;241;29317;-75
2022/04/12 11:39:42;;;;;;;1.70;1.60;;;19.30;95.90;;;;;;490180;241;29434;-75
2022/04/12 11:41:43;;;;;;;5.10;1.70;;;19.50;95.80;;;;;;490190;242;28807;-75
2022/04/12 11:43:44;;;;;;;1.57;1.47;;;19.60;95.60;;;;;;490177;241;28832;-75
2022/04/12 11:45:46;;;;;;;1.40;1.30;;;19.70;95.10;;;;;;490165;241;28843;-75
2022/04/12 11:47:47;;;;;;;1.70;1.60;;;19.60;94.90;;;;;;490191;241;28910;-75
2022/04/12 11:49:48;;;;;;;1.77;1.67;;;19.70;95.40;;;;;;490312;241;28868;-75
2022/04/12 11:51:49;;;;;;;2.07;1.80;;;19.80;96.60;;;;;;490215;241;28835;-75
2022/04/12 11:53:51;;;;;;;1.70;1.60;;;19.80;95.30;;;;;;490201;241;29304;-75
2022/04/12 11:55:52;;;;;;;1.60;1.50;;;19.90;95.10;;;;;;490198;241;29364;-75
2022/04/12 11:57:53;;;;;;;1.77;1.40;;;19.80;94.50;;;;;;490178;241;29250;-75
2022/04/12 11:59:54;;;;;;;2.30;1.40;;;19.90;95.50;;;;;;490198;241;28927;-75
2022/04/12 12:01:59;;;;;;;2.00;1.90;;;20.10;93.10;;;;;;490179;241;28908;-75
2022/04/12 12:03:57;;;;;;;1.50;1.40;;;20.10;94.50;;;;;;489950;242;28834;-76
2022/04/12 12:05:58;;;;;;;1.60;1.50;;;20.10;93.30;;;;;;490179;241;28859;-75
2022/04/12 12:08:00;;;;;;;1.57;1.47;;;20.30;94.10;;;;;;490163;241;28841;-75
2022/04/12 12:10:01;;;;;;;1.50;1.40;;;20.30;93.80;;;;;;490221;241;29316;-78
2022/04/12 12:14:09;;;;;;;2.03;1.60;;;20.30;93.10;;;;;;490163;241;28843;-77
2022/04/12 12:16:11;;;;;;;3.13;1.50;;;20.50;93.30;;;;;;490103;240;28934;-75
2022/04/12 12:18:15;;;;;;;1.60;1.43;;;20.60;92.90;;;;;;490171;241;29388;-76
2022/04/12 12:20:13;;;;;;;1.50;1.40;;;20.50;91.60;;;;;;489994;242;29288;-76
2022/04/12 12:22:14;;;;;;;1.67;1.37;;;20.60;92.80;;;;;;490159;241;29348;-76
2022/04/12 12:24:16;;;;;;;2.00;1.70;;;20.50;91.90;;;;;;490162;241;29478;-77
2022/04/12 12:26:17;;;;;;;3.00;1.80;;;20.60;92.90;;;;;;490143;241;28822;-76
2022/04/12 12:28:18;;;;;;;1.63;1.53;;;20.60;90.80;;;;;;490153;241;28832;-75
2022/04/12 12:30:19;;;;;;;1.60;1.50;;;20.60;91.70;;;;;;490176;241;28849;-77
2022/04/12 12:32:21;;;;;;;1.53;1.43;;;20.50;91.40;;;;;;490151;241;28858;-76
2022/04/12 12:34:22;;;;;;;2.50;1.83;;;20.50;90.40;;;;;;490138;241;28852;-76
2022/04/12 12:36:23;;;;;;;1.60;1.50;;;20.50;90.90;;;;;;490147;241;29243;-75
2022/04/12 12:38:27;;;;;;;1.70;1.60;;;20.40;90.60;;;;;;490151;241;29357;-75
2022/04/12 12:42:51;;;;;;;5.83;1.70;;;20.40;90.10;;;;;;490349;241;28748;-76
2022/04/12 12:44:54;;;;;;;2.10;2.00;;;20.40;90.20;;;;;;490121;241;29298;-75
2022/04/12 12:46:56;;;;;;;2.67;2.23;;;20.30;90.50;;;;;;490152;241;28811;-75
2022/04/12 12:48:56;;;;;;;1.60;1.50;;;20.20;90.70;;;;;;490102;242;28859;-77